South Channel Island, Victoria

8:06 AM AEDT on February 01, 2015 (GMT +1100)
Blairgowrie | Change Station
CLOSE
Current Station
Personal Weather Station
Location: Blairgowrie, VICTORIA
Elevation: 36 ft
Nearby Weather Stations

Elev 36 ft 38.37 °S, 144.79 °E | Updated 1 minute ago

Mostly Cloudy
Mostly Cloudy
58.8 °F
Feels Like 58.8 °F
N
5.0
Wind Variable Wind from South
Gusts 9.0 mph

Today
High -- | Low -- °F
--% Chance of Precip.
Yesterday
High -- | Low -- °F
Precip. -- in
6:32 AM 8:35 PM
Waxing Gibbous, 91% visible
Pressure 29.92 in
Visibility 6.2 miles
Clouds Few 700 ft
Mostly Cloudy 1100 ft
Dew Point 58 °F
Humidity 99%
Rainfall 0.00 in
Snow Depth Not available.
UV 0.0 out of 12
Pollen Not available.
Air Quality Not available.
Flu Activity Not available.
SPECI YMML 312100Z 24010KT 9999 FEW007 BKN011 13/11 Q1013 FM2100 23010KT 9999 -SHRA FEW008 BKN020 TEMPO 2100/2400 4000 SHRA BKN008

More Conditions Fewer Conditions

Pressure 29.92 in
Visibility 6.2 miles
Clouds Few 700 ft
Mostly Cloudy 1100 ft
Dew Point 58 °F
Humidity 99%
Rainfall 0.00 in
Snow Depth Not available.
UV 0.0 out of 12
Pollen Not available.
Air Quality Not available.
Flu Activity Not available.
SPECI YMML 312100Z 24010KT 9999 FEW007 BKN011 13/11 Q1013 FM2100 23010KT 9999 -SHRA FEW008 BKN020 TEMPO 2100/2400 4000 SHRA BKN008

More Conditions Fewer Conditions

10-Day Weather Forecast

Almanac

Astronomy

Feb. 01, 2015 Rise Set
Actual Time
Civil Twilight
Nautical Twilight
Astronomical Twilight
Moon
Length of Visible Light
Length of Day
Tomorrow will be .
, % of the Moon is Illuminated

Today's Extremes

Country Highs Country Lows

Community

WunderPhotos

Upload Photos

1,792,204 photos uploaded!

WunderBlogs® & News

Nearby

Air Quality

  Air Quality AQ Index Pollutant
Not available.

Snow Depth

Station Depth Elevation

Earthquake Activity

City Distance Mag. Time & Date
Minimum magnitude displayed is 2.5.

Coastal Water Temperatures

Place Temperature

Nearby Weather Stations